Terminal Aerodrome Forecast
Issued by NWS

Home | Current Version | Previous Version | Text Only | Print | Product List | Glossary On
Versions: 1 2 3 4 5 6 7 8 9 10 11 12 13
000
FTUS42 KMLB 201136
TAFSUA
TAF
KSUA 201136Z 2012/2112 00000KT P6SM FEW020 BKN100
     FM201400 05005KT P6SM FEW025 SCT100
     FM201800 07010KT P6SM SCT030
     FM210100 07005KT P6SM SCT100=

USA.gov is the U.S. government's official web portal to all federal, state and local government web resources and services.